Time;durP1;ratioP1;P1;durP2;ratioP2;P2;SDS_P1;SDS_P2;PMS_P1;PMS_P2;Temp;Humidity;BMP_temperature;BMP_pressure;BME280_temperature;BME280_humidity;BME280_pressure;Samples;Min_cycle;Max_cycle;Signal;HPM_P1;HPM_P2
2021/09/14 00:00:32;;;;;;;7.83;7.03;;;;;;;;;;4974142;28;20186;-83
2021/09/14 00:03:36;;;;;;;6.57;5.97;;;;;;;;;;4972847;28;20182;-83
2021/09/14 00:06:40;;;;;;;8.13;6.27;;;;;;;;;;4984761;28;20226;-83
2021/09/14 00:09:44;;;;;;;9.73;6.23;;;;;;;;;;4984264;28;20202;-83
2021/09/14 00:12:48;;;;;;;8.17;5.80;;;;;;;;;;4972356;28;20522;-83
2021/09/14 00:15:52;;;;;;;7.67;5.60;;;;;;;;;;4972808;28;20182;-83
2021/09/14 00:18:56;;;;;;;6.07;5.47;;;;;;;;;;4972918;28;20210;-85
2021/09/14 00:22:00;;;;;;;7.17;5.50;;;;;;;;;;4972347;28;20194;-83
2021/09/14 00:25:05;;;;;;;7.30;6.07;;;;;;;;;;4960705;28;20209;-83
2021/09/14 00:28:09;;;;;;;7.97;5.80;;;;;;;;;;4983146;28;20210;-85
2021/09/14 00:31:13;;;;;;;6.57;5.70;;;;;;;;;;4972501;28;20182;-83
2021/09/14 00:34:17;;;;;;;7.53;6.00;;;;;;;;;;4973467;28;20210;-83
2021/09/14 00:37:21;;;;;;;8.53;5.83;;;;;;;;;;4972927;28;20225;-83
2021/09/14 00:40:26;;;;;;;7.50;5.63;;;;;;;;;;4973300;28;20252;-83
2021/09/14 00:43:30;;;;;;;7.17;6.40;;;;;;;;;;4973402;28;20538;-83
2021/09/14 00:46:34;;;;;;;8.13;7.00;;;;;;;;;;4972635;28;20210;-85
2021/09/14 00:49:38;;;;;;;7.43;6.23;;;;;;;;;;4972655;28;20178;-85
2021/09/14 00:52:42;;;;;;;6.73;6.07;;;;;;;;;;4971954;28;20205;-85
2021/09/14 00:55:47;;;;;;;7.90;6.77;;;;;;;;;;4983324;28;20210;-85
2021/09/14 00:58:51;;;;;;;9.33;6.73;;;;;;;;;;4972006;28;20210;-82
2021/09/14 01:01:55;;;;;;;10.10;6.47;;;;;;;;;;4982618;28;20202;-86
2021/09/14 01:04:59;;;;;;;8.37;6.67;;;;;;;;;;4972005;28;20653;-83
2021/09/14 01:08:06;;;;;;;7.20;6.50;;;;;;;;;;4971841;28;20218;-83
2021/09/14 01:11:11;;;;;;;8.43;7.20;;;;;;;;;;4960714;28;20190;-85
2021/09/14 01:14:15;;;;;;;8.00;7.07;;;;;;;;;;4973503;28;20194;-85
2021/09/14 01:17:19;;;;;;;9.93;7.83;;;;;;;;;;4971830;28;20226;-86
2021/09/14 01:20:23;;;;;;;8.97;7.10;;;;;;;;;;4971801;28;20645;-83
2021/09/14 01:23:28;;;;;;;9.30;7.17;;;;;;;;;;4971996;28;20198;-85
2021/09/14 01:26:35;;;;;;;11.27;7.93;;;;;;;;;;4960609;28;20198;-85
2021/09/14 01:33:08;;;;;;;7.53;6.63;;;;;;;;;;4972663;28;20190;-83
2021/09/14 01:36:16;;;;;;;7.60;6.90;;;;;;;;;;4984044;28;20190;-85
2021/09/14 01:39:21;;;;;;;9.33;6.90;;;;;;;;;;4975025;28;20542;-83
2021/09/14 01:42:25;;;;;;;8.13;6.60;;;;;;;;;;4986215;28;20182;-83
2021/09/14 01:45:30;;;;;;;7.57;6.47;;;;;;;;;;4963778;28;20186;-82
2021/09/14 01:48:34;;;;;;;10.23;6.73;;;;;;;;;;4974136;28;20693;-83
2021/09/14 01:51:39;;;;;;;9.27;6.20;;;;;;;;;;4974858;28;20202;-82
2021/09/14 01:54:44;;;;;;;10.93;7.63;;;;;;;;;;4986675;28;20182;-83
2021/09/14 01:57:50;;;;;;;7.40;6.70;;;;;;;;;;4974495;28;20217;-83
2021/09/14 02:07:23;;;;;;;7.07;6.37;;;;;;;;;;4985380;28;20225;-85
2021/09/14 02:40:57;;;;;;;8.50;7.27;;;;;;;;;;4973849;28;20179;-85
2021/09/14 02:44:18;;;;;;;10.00;6.70;;;;;;;;;;4984861;28;20182;-85
2021/09/14 03:00:54;;;;;;;8.67;7.80;;;;;;;;;;4973192;28;20178;-85
2021/09/14 03:03:59;;;;;;;9.27;8.33;;;;;;;;;;4983855;28;20665;-85
2021/09/14 03:07:03;;;;;;;9.90;7.10;;;;;;;;;;4961384;28;20217;-85
2021/09/14 03:10:18;;;;;;;8.27;7.47;;;;;;;;;;4983870;28;20186;-85
2021/09/14 03:13:22;;;;;;;10.27;8.57;;;;;;;;;;4972941;28;20190;-85
2021/09/14 03:16:28;;;;;;;9.47;8.53;;;;;;;;;;4972814;28;20193;-85
2021/09/14 03:19:32;;;;;;;9.83;8.33;;;;;;;;;;4972428;28;20218;-85
2021/09/14 03:22:38;;;;;;;9.87;7.60;;;;;;;;;;4973218;28;20175;-85
2021/09/14 03:25:42;;;;;;;8.27;7.47;;;;;;;;;;4974013;28;20519;-85
2021/09/14 03:28:47;;;;;;;9.07;8.17;;;;;;;;;;4972872;28;20182;-85
2021/09/14 03:31:51;;;;;;;9.37;8.00;;;;;;;;;;4972699;28;20186;-85
2021/09/14 03:34:55;;;;;;;11.23;8.40;;;;;;;;;;4972354;28;20198;-85
2021/09/14 03:38:00;;;;;;;12.43;8.57;;;;;;;;;;4972549;28;20293;-85
2021/09/14 03:41:04;;;;;;;9.43;8.43;;;;;;;;;;4972893;28;20665;-85
2021/09/14 03:44:08;;;;;;;13.47;7.87;;;;;;;;;;4972458;28;20633;-82
2021/09/14 03:47:12;;;;;;;9.50;8.50;;;;;;;;;;4972082;28;20246;-82
2021/09/14 03:50:19;;;;;;;8.90;7.73;;;;;;;;;;4972271;28;20175;-82
2021/09/14 03:53:25;;;;;;;8.83;7.93;;;;;;;;;;4972632;28;20676;-85
2021/09/14 03:56:31;;;;;;;10.53;8.30;;;;;;;;;;4960965;28;20186;-85
2021/09/14 03:59:39;;;;;;;9.10;7.97;;;;;;;;;;4982750;28;20214;-85
2021/09/14 04:02:53;;;;;;;11.43;9.00;;;;;;;;;;4972466;28;20178;-85
2021/09/14 04:09:13;;;;;;;9.17;7.97;;;;;;;;;;4972021;28;20182;-83
2021/09/14 04:12:27;;;;;;;10.47;8.43;;;;;;;;;;4983311;28;20186;-84
2021/09/14 04:15:31;;;;;;;13.20;8.93;;;;;;;;;;4972343;28;20182;-86
2021/09/14 04:18:39;;;;;;;10.83;7.93;;;;;;;;;;4972141;28;20226;-84
2021/09/14 04:21:44;;;;;;;9.93;8.80;;;;;;;;;;4961022;28;20186;-84
2021/09/14 04:24:52;;;;;;;10.50;8.30;;;;;;;;;;4972149;28;20186;-86
2021/09/14 04:27:57;;;;;;;9.33;8.27;;;;;;;;;;4971918;28;20225;-84
2021/09/14 04:31:01;;;;;;;9.17;8.27;;;;;;;;;;4972193;28;20178;-86
2021/09/14 04:34:06;;;;;;;10.13;8.63;;;;;;;;;;4972479;28;20182;-83
2021/09/14 04:37:10;;;;;;;13.30;8.80;;;;;;;;;;4971682;28;20221;-83
2021/09/14 04:40:15;;;;;;;17.13;9.60;;;;;;;;;;4971348;28;20225;-83
2021/09/14 04:43:21;;;;;;;11.43;9.80;;;;;;;;;;4971893;28;20186;-86
2021/09/14 04:46:26;;;;;;;10.40;8.03;;;;;;;;;;4971689;28;20178;-84
2021/09/14 04:49:30;;;;;;;13.63;9.13;;;;;;;;;;4972309;28;20178;-84
2021/09/14 04:52:34;;;;;;;10.40;8.67;;;;;;;;;;4972313;28;20178;-84
2021/09/14 04:55:38;;;;;;;10.93;9.23;;;;;;;;;;4971809;28;20178;-83
2021/09/14 04:58:43;;;;;;;10.17;8.70;;;;;;;;;;4971545;28;20217;-85
2021/09/14 05:01:48;;;;;;;14.87;9.33;;;;;;;;;;4971992;28;20190;-83
2021/09/14 05:04:51;;;;;;;15.87;10.20;;;;;;;;;;4972316;28;20182;-83
2021/09/14 05:07:56;;;;;;;16.93;10.57;;;;;;;;;;4972388;28;20225;-83
2021/09/14 05:11:04;;;;;;;13.30;9.93;;;;;;;;;;4985252;28;20530;-83
2021/09/14 05:14:08;;;;;;;16.77;10.40;;;;;;;;;;4975854;28;20194;-83
2021/09/14 05:17:23;;;;;;;17.40;10.30;;;;;;;;;;4975446;28;20229;-83
2021/09/14 05:20:33;;;;;;;22.67;9.97;;;;;;;;;;4986906;28;20237;-83
2021/09/14 05:23:38;;;;;;;13.03;10.20;;;;;;;;;;4975422;28;20178;-83
2021/09/14 05:26:42;;;;;;;15.23;10.40;;;;;;;;;;4985937;28;20589;-83
2021/09/14 05:29:46;;;;;;;14.63;11.47;;;;;;;;;;4974981;28;20217;-83
2021/09/14 05:32:50;;;;;;;11.93;9.73;;;;;;;;;;4975397;28;20213;-83
2021/09/14 05:35:55;;;;;;;15.00;10.43;;;;;;;;;;4975841;28;20174;-83
2021/09/14 05:38:59;;;;;;;15.70;10.80;;;;;;;;;;4986325;28;20640;-83
2021/09/14 05:42:03;;;;;;;20.13;10.13;;;;;;;;;;4964515;28;20212;-86
2021/09/14 05:45:08;;;;;;;15.10;10.67;;;;;;;;;;4975078;28;20193;-83
2021/09/14 05:48:12;;;;;;;13.17;9.30;;;;;;;;;;4964123;28;20240;-83
2021/09/14 05:51:19;;;;;;;23.83;12.60;;;;;;;;;;4974648;28;20221;-83
2021/09/14 05:54:31;;;;;;;21.50;12.90;;;;;;;;;;4974878;28;20737;-83
2021/09/14 05:57:36;;;;;;;21.27;11.27;;;;;;;;;;4974620;28;20225;-83
2021/09/14 06:00:40;;;;;;;19.53;10.63;;;;;;;;;;4987331;28;20237;-83
2021/09/14 06:03:44;;;;;;;12.70;8.80;;;;;;;;;;4965865;28;20197;-83
2021/09/14 06:06:48;;;;;;;14.13;9.10;;;;;;;;;;4976469;28;20218;-84
2021/09/14 06:09:52;;;;;;;11.40;10.07;;;;;;;;;;4975853;28;20186;-84
2021/09/14 06:12:56;;;;;;;15.30;9.10;;;;;;;;;;4988011;28;20637;-83
2021/09/14 06:16:03;;;;;;;12.40;9.80;;;;;;;;;;4976747;28;20630;-83
2021/09/14 06:19:07;;;;;;;15.10;11.00;;;;;;;;;;4965926;28;20186;-84
2021/09/14 06:22:13;;;;;;;13.77;10.07;;;;;;;;;;4965307;28;20201;-83
2021/09/14 06:25:19;;;;;;;13.87;10.70;;;;;;;;;;4988050;28;20189;-83
2021/09/14 06:28:23;;;;;;;15.17;10.33;;;;;;;;;;4976326;28;20229;-84
2021/09/14 06:31:28;;;;;;;15.73;12.10;;;;;;;;;;4962333;28;20566;-83
2021/09/14 06:34:33;;;;;;;15.47;12.03;;;;;;;;;;4962910;28;20209;-83
2021/09/14 06:37:38;;;;;;;14.87;12.33;;;;;;;;;;4963154;28;20704;-83
2021/09/14 06:40:43;;;;;;;16.97;12.50;;;;;;;;;;4984545;28;20581;-83
2021/09/14 06:43:47;;;;;;;14.83;11.97;;;;;;;;;;4973649;28;20185;-83
2021/09/14 06:46:53;;;;;;;16.40;12.33;;;;;;;;;;4973823;28;20716;-83
2021/09/14 06:49:58;;;;;;;15.60;11.53;;;;;;;;;;5016405;23;20240;-85
2021/09/14 06:53:02;;;;;;;25.73;16.53;;;;;;;;;;4994176;28;20196;-85
2021/09/14 06:56:09;;;;;;;24.70;16.70;;;;;;;;;;4994642;28;20184;-85
2021/09/14 06:59:19;;;;;;;17.57;13.70;;;;;;;;;;4987265;28;20225;-85
2021/09/14 07:02:23;;;;;;;20.63;14.40;;;;;;;;;;4997295;28;20702;-85
2021/09/14 07:05:27;;;;;;;20.53;12.97;;;;;;;;;;4973665;28;20186;-85
2021/09/14 07:08:31;;;;;;;19.97;12.70;;;;;;;;;;4994719;28;20193;-84
2021/09/14 07:11:35;;;;;;;22.10;13.67;;;;;;;;;;4984325;28;20189;-85
2021/09/14 07:14:39;;;;;;;20.80;13.13;;;;;;;;;;4984540;28;20197;-85
2021/09/14 07:17:44;;;;;;;15.27;12.57;;;;;;;;;;4982607;28;20196;-85
2021/09/14 07:20:48;;;;;;;16.43;11.83;;;;;;;;;;4973733;28;20711;-84
2021/09/14 07:23:52;;;;;;;21.70;12.40;;;;;;;;;;4972438;28;20194;-85
2021/09/14 07:26:56;;;;;;;22.50;12.80;;;;;;;;;;4983126;28;20189;-85
2021/09/14 07:30:00;;;;;;;18.60;12.17;;;;;;;;;;4983052;28;20231;-85
2021/09/14 07:33:05;;;;;;;14.97;10.90;;;;;;;;;;4971826;28;20688;-85
2021/09/14 07:36:09;;;;;;;12.70;9.57;;;;;;;;;;4972401;28;20193;-85
2021/09/14 07:39:13;;;;;;;10.63;9.13;;;;;;;;;;4983247;28;20214;-85
2021/09/14 07:42:18;;;;;;;10.07;8.23;;;;;;;;;;4983703;28;20190;-85
2021/09/14 07:45:23;;;;;;;10.30;8.03;;;;;;;;;;4983129;28;20179;-85
2021/09/14 07:48:27;;;;;;;8.90;6.70;;;;;;;;;;4972054;28;20186;-84
2021/09/14 07:51:31;;;;;;;7.90;6.87;;;;;;;;;;4982957;28;20198;-85
2021/09/14 07:54:35;;;;;;;7.70;6.33;;;;;;;;;;4983977;28;20206;-85
2021/09/14 07:57:40;;;;;;;11.37;6.60;;;;;;;;;;4982879;28;20546;-85
2021/09/14 08:00:44;;;;;;;9.23;7.10;;;;;;;;;;4971273;28;20226;-85
2021/09/14 08:03:48;;;;;;;7.23;6.53;;;;;;;;;;4982528;28;20546;-84
2021/09/14 08:06:53;;;;;;;8.83;5.77;;;;;;;;;;4982652;28;20200;-85
2021/09/14 08:09:57;;;;;;;8.30;5.60;;;;;;;;;;4982362;28;20213;-84
2021/09/14 08:13:02;;;;;;;11.17;6.00;;;;;;;;;;4994093;28;20190;-85
2021/09/14 08:16:06;;;;;;;8.67;5.80;;;;;;;;;;4982903;28;20190;-85
2021/09/14 08:19:10;;;;;;;7.20;5.60;;;;;;;;;;4982416;28;20221;-84
2021/09/14 08:22:14;;;;;;;8.57;5.77;;;;;;;;;;4993977;28;20634;-86
2021/09/14 08:25:18;;;;;;;11.13;6.43;;;;;;;;;;4971878;28;20186;-85
2021/09/14 08:28:22;;;;;;;6.30;5.70;;;;;;;;;;4993744;28;20182;-84
2021/09/14 08:31:26;;;;;;;5.70;5.20;;;;;;;;;;4993934;28;20502;-85
2021/09/14 08:34:31;;;;;;;6.70;5.63;;;;;;;;;;4982760;28;20206;-85
2021/09/14 08:37:35;;;;;;;7.47;5.00;;;;;;;;;;4982081;28;20200;-85
2021/09/14 08:40:42;;;;;;;6.03;5.03;;;;;;;;;;4970805;28;20231;-85
2021/09/14 08:43:48;;;;;;;5.30;4.80;;;;;;;;;;4982699;28;20182;-85
2021/09/14 08:46:53;;;;;;;6.10;4.87;;;;;;;;;;4985741;28;20521;-85
2021/09/14 08:49:57;;;;;;;8.00;4.50;;;;;;;;;;4985885;28;20232;-85
2021/09/14 08:53:04;;;;;;;8.20;5.10;;;;;;;;;;4986194;28;20270;-86
2021/09/14 08:56:10;;;;;;;6.47;4.87;;;;;;;;;;4986296;28;20178;-86
2021/09/14 08:59:25;;;;;;;5.40;4.90;;;;;;;;;;4985970;28;20222;-85
2021/09/14 09:02:29;;;;;;;5.25;4.75;;;;;;;;;;4986208;28;20175;-85
2021/09/14 09:05:34;;;;;;;5.53;4.72;;;;;;;;;;4997452;28;20179;-86
2021/09/14 09:08:38;;;;;;;5.50;5.00;;;;;;;;;;4986089;28;20564;-85
2021/09/14 09:12:07;;;;;;;4.65;4.25;;;;;;;;;;4997394;28;20182;-85
2021/09/14 09:15:26;;;;;;;5.47;4.97;;;;;;;;;;4996903;28;20175;-85
2021/09/14 09:18:30;;;;;;;7.22;5.20;;;;;;;;;;4985872;28;20187;-85
2021/09/14 09:21:39;;;;;;;8.75;4.55;;;;;;;;;;4996268;28;20203;-85
2021/09/14 09:24:45;;;;;;;17.58;4.93;;;;;;;;;;4985878;28;20644;-85
2021/09/14 09:28:01;;;;;;;6.85;4.28;;;;;;;;;;4985714;28;20188;-85
2021/09/14 09:31:09;;;;;;;10.75;6.55;;;;;;;;;;4996923;28;20186;-85
2021/09/14 09:34:14;;;;;;;4.88;4.35;;;;;;;;;;4974385;28;20193;-85
2021/09/14 09:37:22;;;;;;;4.40;3.97;;;;;;;;;;4963739;28;20181;-85
2021/09/14 09:40:33;;;;;;;4.85;4.30;;;;;;;;;;4996402;28;20229;-85
2021/09/14 09:43:37;;;;;;;5.72;4.05;;;;;;;;;;4974248;28;20629;-85
2021/09/14 09:46:42;;;;;;;5.55;4.50;;;;;;;;;;4985393;28;20208;-85
2021/09/14 09:49:49;;;;;;;9.88;4.25;;;;;;;;;;4984688;28;20228;-85
2021/09/14 09:52:54;;;;;;;4.22;3.83;;;;;;;;;;4985081;28;20514;-85
2021/09/14 09:55:58;;;;;;;6.88;4.10;;;;;;;;;;4984821;28;20185;-85
2021/09/14 09:59:02;;;;;;;3.90;3.60;;;;;;;;;;4984420;28;20214;-85
2021/09/14 10:02:26;;;;;;;7.30;3.65;;;;;;;;;;4995734;28;20225;-83
2021/09/14 10:05:34;;;;;;;5.80;3.72;;;;;;;;;;4973670;28;20635;-83
2021/09/14 10:08:38;;;;;;;4.20;3.80;;;;;;;;;;4973661;28;20226;-83
2021/09/14 10:11:53;;;;;;;5.07;4.15;;;;;;;;;;4984316;28;20542;-83
2021/09/14 10:15:04;;;;;;;4.40;3.58;;;;;;;;;;4984817;28;20182;-83
2021/09/14 10:18:09;;;;;;;4.45;3.65;;;;;;;;;;4984902;28;20175;-83
2021/09/14 10:21:19;;;;;;;5.63;3.58;;;;;;;;;;4995708;28;20214;-83
2021/09/14 10:24:24;;;;;;;8.68;4.45;;;;;;;;;;4995707;28;20634;-83
2021/09/14 10:27:42;;;;;;;6.43;4.00;;;;;;;;;;4984906;28;20182;-83
2021/09/14 10:30:47;;;;;;;4.03;3.63;;;;;;;;;;4984309;28;20186;-83
2021/09/14 10:34:12;;;;;;;4.90;3.95;;;;;;;;;;4995599;28;20187;-83
2021/09/14 10:37:17;;;;;;;3.80;3.50;;;;;;;;;;4995779;28;20183;-83
2021/09/14 10:40:22;;;;;;;6.25;3.50;;;;;;;;;;4973077;28;20338;-83
2021/09/14 10:43:34;;;;;;;7.05;3.55;;;;;;;;;;4984426;28;20201;-82
2021/09/14 10:46:41;;;;;;;5.32;3.95;;;;;;;;;;4962458;28;20634;-82
2021/09/14 10:49:48;;;;;;;5.20;3.80;;;;;;;;;;4984133;28;20226;-83
2021/09/14 10:53:00;;;;;;;5.70;4.00;;;;;;;;;;4995313;28;20178;-83
2021/09/14 10:56:04;;;;;;;7.43;4.18;;;;;;;;;;4972548;28;20187;-83
2021/09/14 10:59:16;;;;;;;7.00;4.30;;;;;;;;;;4984102;28;20558;-83
2021/09/14 11:02:24;;;;;;;10.68;4.15;;;;;;;;;;4984221;28;20218;-83
2021/09/14 11:05:33;;;;;;;4.88;3.60;;;;;;;;;;4962358;28;20186;-84
2021/09/14 11:08:38;;;;;;;4.72;4.15;;;;;;;;;;4994737;28;20187;-83
2021/09/14 11:11:49;;;;;;;4.30;3.70;;;;;;;;;;4972522;28;20186;-83
2021/09/14 11:14:54;;;;;;;14.90;4.45;;;;;;;;;;4995827;28;20535;-83
2021/09/14 11:17:58;;;;;;;4.78;4.00;;;;;;;;;;4972743;28;20186;-83
2021/09/14 11:21:11;;;;;;;4.28;3.88;;;;;;;;;;4994738;28;20214;-83
2021/09/14 11:24:20;;;;;;;3.90;3.60;;;;;;;;;;4971884;28;20197;-83
2021/09/14 11:27:24;;;;;;;4.65;4.03;;;;;;;;;;4983309;28;20206;-83
2021/09/14 11:30:30;;;;;;;4.97;3.97;;;;;;;;;;4982972;28;20221;-83
2021/09/14 11:33:39;;;;;;;4.82;3.60;;;;;;;;;;4983443;28;20186;-82
2021/09/14 11:36:44;;;;;;;4.85;3.53;;;;;;;;;;4972146;28;20182;-83
2021/09/14 11:39:48;;;;;;;4.32;3.25;;;;;;;;;;4960682;28;20214;-83
2021/09/14 11:42:56;;;;;;;5.55;3.72;;;;;;;;;;4994439;28;20228;-83
2021/09/14 11:46:15;;;;;;;3.78;3.30;;;;;;;;;;4994331;28;20182;-83
2021/09/14 11:49:29;;;;;;;5.22;3.95;;;;;;;;;;4960607;28;20228;-83
2021/09/14 11:52:33;;;;;;;8.15;3.92;;;;;;;;;;4982570;28;20185;-83
2021/09/14 11:55:43;;;;;;;7.22;4.25;;;;;;;;;;4993696;28;20200;-83
2021/09/14 11:58:48;;;;;;;5.95;3.95;;;;;;;;;;4971702;28;20229;-82
2021/09/14 12:01:53;;;;;;;5.25;4.00;;;;;;;;;;4960835;28;20662;-82
2021/09/14 12:04:59;;;;;;;4.43;3.70;;;;;;;;;;4982882;28;20182;-83
2021/09/14 12:08:09;;;;;;;5.65;3.72;;;;;;;;;;4971715;28;20186;-83
2021/09/14 12:11:27;;;;;;;3.38;3.08;;;;;;;;;;4993542;28;20186;-83
2021/09/14 12:14:31;;;;;;;3.22;2.92;;;;;;;;;;4960237;28;20202;-85
2021/09/14 12:17:35;;;;;;;4.00;3.28;;;;;;;;;;4982784;28;20515;-84
2021/09/14 12:20:39;;;;;;;7.60;3.28;;;;;;;;;;4982142;28;20226;-84
2021/09/14 12:23:43;;;;;;;5.63;3.33;;;;;;;;;;4993902;28;20179;-84
2021/09/14 12:26:51;;;;;;;4.22;3.60;;;;;;;;;;4982248;28;20530;-84
2021/09/14 12:29:55;;;;;;;3.30;3.00;;;;;;;;;;4987969;28;20210;-85
2021/09/14 12:32:59;;;;;;;4.20;2.92;;;;;;;;;;4972064;28;20191;-85
2021/09/14 12:36:03;;;;;;;5.70;3.10;;;;;;;;;;4994603;28;20178;-85
2021/09/14 12:39:08;;;;;;;5.78;3.25;;;;;;;;;;4981996;28;20218;-85
2021/09/14 12:42:12;;;;;;;3.25;2.95;;;;;;;;;;4971058;28;20361;-85
2021/09/14 12:45:17;;;;;;;4.15;3.20;;;;;;;;;;4993819;28;20190;-85
2021/09/14 12:48:21;;;;;;;5.10;2.90;;;;;;;;;;4993557;28;20629;-84
2021/09/14 12:51:25;;;;;;;4.35;3.20;;;;;;;;;;5013105;23;20234;-85
2021/09/14 12:54:29;;;;;;;4.82;3.20;;;;;;;;;;5005799;28;20197;-85
2021/09/14 12:57:33;;;;;;;5.95;2.88;;;;;;;;;;5012865;28;20538;-86
2021/09/14 13:00:37;;;;;;;12.85;3.70;;;;;;;;;;5001704;28;20217;-86
2021/09/14 13:03:42;;;;;;;9.40;3.78;;;;;;;;;;5024242;28;20189;-86
2021/09/14 13:06:46;;;;;;;4.32;2.83;;;;;;;;;;4990928;28;20178;-87
2021/09/14 13:09:50;;;;;;;6.32;3.17;;;;;;;;;;5001487;28;20586;-86
2021/09/14 13:16:16;;;;;;;10.38;3.42;;;;;;;;;;4982252;28;20187;-86
2021/09/14 13:19:20;;;;;;;5.57;3.63;;;;;;;;;;4981794;28;20661;-86
2021/09/14 13:22:24;;;;;;;4.07;3.10;;;;;;;;;;4981519;28;20226;-85
2021/09/14 13:25:28;;;;;;;3.80;3.05;;;;;;;;;;4982658;28;20179;-86
2021/09/14 13:28:33;;;;;;;4.93;3.28;;;;;;;;;;4982167;28;20182;-86
2021/09/14 13:31:37;;;;;;;3.05;2.80;;;;;;;;;;4982974;28;20218;-86
2021/09/14 13:34:41;;;;;;;3.58;3.13;;;;;;;;;;4996440;28;20190;-86
2021/09/14 13:37:45;;;;;;;4.00;3.38;;;;;;;;;;4974366;28;20190;-86
2021/09/14 13:40:50;;;;;;;3.47;3.15;;;;;;;;;;4985382;28;20680;-85
2021/09/14 13:43:59;;;;;;;4.35;3.13;;;;;;;;;;4985400;28;20174;-86
2021/09/14 13:47:08;;;;;;;17.75;4.75;;;;;;;;;;4974257;28;20191;-86
2021/09/14 13:50:12;;;;;;;8.35;3.25;;;;;;;;;;4996134;28;20230;-86
2021/09/14 13:53:17;;;;;;;4.43;3.05;;;;;;;;;;4984654;28;20175;-86
2021/09/14 13:56:24;;;;;;;4.63;3.30;;;;;;;;;;4974144;28;20183;-86
2021/09/14 13:59:28;;;;;;;3.88;3.30;;;;;;;;;;4974121;28;20634;-86
2021/09/14 14:02:33;;;;;;;6.35;3.20;;;;;;;;;;4987681;28;20218;-86
2021/09/14 14:05:36;;;;;;;6.55;3.80;;;;;;;;;;5004212;28;20205;-86
2021/09/14 14:08:41;;;;;;;13.25;3.33;;;;;;;;;;5004262;28;20198;-86
2021/09/14 14:11:46;;;;;;;4.30;3.17;;;;;;;;;;5015407;28;20217;-86
2021/09/14 14:14:49;;;;;;;7.30;3.55;;;;;;;;;;5004591;28;20177;-86
2021/09/14 14:17:54;;;;;;;4.70;3.70;;;;;;;;;;5004337;28;20652;-86
2021/09/14 14:20:58;;;;;;;4.13;2.95;;;;;;;;;;5004722;28;20221;-86
2021/09/14 14:24:02;;;;;;;8.77;3.40;;;;;;;;;;5004458;28;20181;-86
2021/09/14 14:27:07;;;;;;;4.80;4.07;;;;;;;;;;5004003;28;20200;-86
2021/09/14 14:30:11;;;;;;;6.75;3.83;;;;;;;;;;5004549;28;20210;-86
2021/09/14 14:33:15;;;;;;;5.15;3.38;;;;;;;;;;5004349;28;20180;-86
2021/09/14 14:36:19;;;;;;;7.63;3.47;;;;;;;;;;4993505;28;20177;-86
2021/09/14 14:39:24;;;;;;;6.25;3.80;;;;;;;;;;4993906;28;20183;-86
2021/09/14 14:42:28;;;;;;;4.60;3.33;;;;;;;;;;5004383;28;20212;-86
2021/09/14 14:45:31;;;;;;;4.25;3.10;;;;;;;;;;4993486;28;20196;-86
2021/09/14 14:48:37;;;;;;;4.00;3.35;;;;;;;;;;5004995;28;20189;-86
2021/09/14 14:51:42;;;;;;;4.63;3.42;;;;;;;;;;5004247;28;20231;-86
2021/09/14 14:54:46;;;;;;;4.50;3.50;;;;;;;;;;5004211;28;20201;-86
2021/09/14 14:57:50;;;;;;;7.45;4.20;;;;;;;;;;5004423;28;20207;-86
2021/09/14 15:00:54;;;;;;;4.80;4.18;;;;;;;;;;5004421;28;20221;-86
2021/09/14 15:03:58;;;;;;;5.75;3.92;;;;;;;;;;4993129;28;20177;-86
2021/09/14 15:07:03;;;;;;;6.35;3.60;;;;;;;;;;4992574;28;20634;-87
2021/09/14 15:10:07;;;;;;;3.67;3.33;;;;;;;;;;4992296;28;20193;-86
2021/09/14 15:13:11;;;;;;;4.60;3.55;;;;;;;;;;5015363;28;20189;-86
2021/09/14 15:16:15;;;;;;;4.95;3.90;;;;;;;;;;4992483;28;20188;-86
2021/09/14 15:19:21;;;;;;;5.18;3.42;;;;;;;;;;5015833;28;20670;-86
2021/09/14 15:22:25;;;;;;;4.03;3.22;;;;;;;;;;5015187;28;20226;-86
2021/09/14 15:25:29;;;;;;;6.88;4.38;;;;;;;;;;5003504;28;20177;-86
2021/09/14 15:28:33;;;;;;;4.25;3.78;;;;;;;;;;4991925;28;20178;-86
2021/09/14 15:31:37;;;;;;;11.07;4.22;;;;;;;;;;5003416;28;20215;-86
2021/09/14 15:34:41;;;;;;;9.02;3.90;;;;;;;;;;5026144;28;20639;-86
2021/09/14 15:37:45;;;;;;;21.90;5.93;;;;;;;;;;5003545;28;20180;-86
2021/09/14 15:40:54;;;;;;;11.48;4.50;;;;;;;;;;4992281;28;20218;-86
2021/09/14 15:43:59;;;;;;;12.93;9.55;;;;;;;;;;5015728;28;20211;-86
2021/09/14 15:47:03;;;;;;;10.82;6.57;;;;;;;;;;5004064;28;20520;-86
2021/09/14 15:50:08;;;;;;;6.47;5.88;;;;;;;;;;4991994;28;20202;-86
2021/09/14 15:53:12;;;;;;;15.07;6.50;;;;;;;;;;5003769;28;20179;-86
2021/09/14 15:56:17;;;;;;;11.95;6.43;;;;;;;;;;5003405;28;20187;-86
2021/09/14 15:59:21;;;;;;;8.13;6.32;;;;;;;;;;4991265;28;20188;-86
2021/09/14 16:02:25;;;;;;;14.77;10.35;;;;;;;;;;4991320;28;20545;-86
2021/09/14 16:05:30;;;;;;;18.10;9.05;;;;;;;;;;5013767;28;20220;-86
2021/09/14 16:08:35;;;;;;;8.05;5.72;;;;;;;;;;4991019;28;20200;-86
2021/09/14 16:11:39;;;;;;;6.22;4.93;;;;;;;;;;4991202;28;20217;-86
2021/09/14 16:14:43;;;;;;;5.70;4.30;;;;;;;;;;4991106;28;20197;-86
2021/09/14 16:17:48;;;;;;;4.87;4.37;;;;;;;;;;5002137;28;20662;-85
2021/09/14 16:20:52;;;;;;;5.50;4.57;;;;;;;;;;4991067;28;20227;-86
2021/09/14 16:23:58;;;;;;;6.10;4.20;;;;;;;;;;5002591;28;20215;-86
2021/09/14 16:27:02;;;;;;;11.10;5.53;;;;;;;;;;5002433;28;20513;-86
2021/09/14 16:30:08;;;;;;;9.87;5.13;;;;;;;;;;5002827;28;20181;-86
2021/09/14 16:33:14;;;;;;;10.93;5.87;;;;;;;;;;5003045;28;20501;-86
2021/09/14 16:36:18;;;;;;;9.87;6.23;;;;;;;;;;5003123;28;20518;-86
2021/09/14 16:39:23;;;;;;;7.13;5.93;;;;;;;;;;4991614;28;20631;-86
2021/09/14 16:42:26;;;;;;;13.73;6.17;;;;;;;;;;5002208;28;20216;-86
2021/09/14 16:45:31;;;;;;;7.53;6.03;;;;;;;;;;4991772;28;20645;-86
2021/09/14 16:48:37;;;;;;;10.47;5.73;;;;;;;;;;5003008;28;20173;-86
2021/09/14 16:51:41;;;;;;;8.33;5.00;;;;;;;;;;4991802;28;20236;-86
2021/09/14 16:54:45;;;;;;;6.73;4.33;;;;;;;;;;5025943;28;20179;-86
2021/09/14 16:57:50;;;;;;;6.17;4.73;;;;;;;;;;4992452;28;20508;-86
2021/09/14 17:00:54;;;;;;;8.70;5.20;;;;;;;;;;5013337;28;20218;-86
2021/09/14 17:03:58;;;;;;;10.20;5.43;;;;;;;;;;5003146;28;20550;-86
2021/09/14 17:07:02;;;;;;;6.00;5.33;;;;;;;;;;4993513;28;20182;-86
2021/09/14 17:10:06;;;;;;;6.60;5.53;;;;;;;;;;5008855;28;20182;-86
2021/09/14 17:13:11;;;;;;;6.70;5.60;;;;;;;;;;5031461;28;20181;-86
2021/09/14 17:16:15;;;;;;;8.43;6.00;;;;;;;;;;5019248;28;20186;-86
2021/09/14 17:19:19;;;;;;;6.60;6.00;;;;;;;;;;4997766;28;20176;-86
2021/09/14 17:22:23;;;;;;;9.97;6.20;;;;;;;;;;5008716;28;20197;-86
2021/09/14 17:25:29;;;;;;;7.23;6.33;;;;;;;;;;5009220;28;20201;-86
2021/09/14 17:28:33;;;;;;;10.50;7.03;;;;;;;;;;4997719;28;20197;-86
2021/09/14 17:31:38;;;;;;;8.37;6.83;;;;;;;;;;5020390;28;20222;-86
2021/09/14 17:34:42;;;;;;;9.40;6.87;;;;;;;;;;4997936;28;20178;-86
2021/09/14 17:37:46;;;;;;;9.50;7.13;;;;;;;;;;5020687;28;20628;-86
2021/09/14 17:40:51;;;;;;;8.63;7.30;;;;;;;;;;5020157;28;20217;-86
2021/09/14 17:43:55;;;;;;;9.43;6.67;;;;;;;;;;4997190;28;20213;-86
2021/09/14 17:46:59;;;;;;;7.30;6.60;;;;;;;;;;5007669;28;20514;-86
2021/09/14 17:50:04;;;;;;;9.13;6.80;;;;;;;;;;4996197;28;20185;-86
2021/09/14 17:53:09;;;;;;;11.77;6.73;;;;;;;;;;5007734;28;20196;-86
2021/09/14 17:56:13;;;;;;;11.97;7.13;;;;;;;;;;4995884;28;20185;-86
2021/09/14 17:59:17;;;;;;;7.67;6.50;;;;;;;;;;4997040;28;20533;-86
2021/09/14 18:02:21;;;;;;;9.83;6.40;;;;;;;;;;5007763;28;20209;-86
2021/09/14 18:05:25;;;;;;;7.67;6.13;;;;;;;;;;4995497;28;20178;-86
2021/09/14 18:08:30;;;;;;;6.70;5.97;;;;;;;;;;4996096;28;20514;-85
2021/09/14 18:11:34;;;;;;;10.43;6.30;;;;;;;;;;5006887;28;20213;-86
2021/09/14 18:14:38;;;;;;;7.90;5.80;;;;;;;;;;5006428;28;20190;-86
2021/09/14 18:17:44;;;;;;;12.27;6.20;;;;;;;;;;5006220;28;20177;-86
2021/09/14 18:20:48;;;;;;;7.33;5.67;;;;;;;;;;5027653;28;20221;-86
2021/09/14 18:23:53;;;;;;;10.67;5.83;;;;;;;;;;5006385;28;20213;-86
2021/09/14 18:26:57;;;;;;;6.80;6.10;;;;;;;;;;4995308;28;20174;-86
2021/09/14 18:30:01;;;;;;;8.00;5.07;;;;;;;;;;5006525;28;20178;-86
2021/09/14 18:33:05;;;;;;;6.30;5.57;;;;;;;;;;4995138;28;20189;-86
2021/09/14 18:36:09;;;;;;;7.93;6.03;;;;;;;;;;5017357;28;20205;-85
2021/09/14 18:39:14;;;;;;;9.77;5.90;;;;;;;;;;4999973;28;20652;-86
2021/09/14 18:42:18;;;;;;;8.77;5.87;;;;;;;;;;4999944;28;20209;-87
2021/09/14 18:45:22;;;;;;;6.73;5.83;;;;;;;;;;5016410;28;20182;-85
2021/09/14 18:48:26;;;;;;;7.70;5.73;;;;;;;;;;4967432;28;20523;-85
2021/09/14 18:51:30;;;;;;;7.67;6.80;;;;;;;;;;4958306;28;20234;-83
2021/09/14 18:54:36;;;;;;;7.97;6.27;;;;;;;;;;4969247;28;20193;-83
2021/09/14 18:57:40;;;;;;;7.77;6.57;;;;;;;;;;5023697;28;20186;-84
2021/09/14 19:00:44;;;;;;;9.03;6.70;;;;;;;;;;5010340;28;20225;-83
2021/09/14 19:03:50;;;;;;;7.50;6.70;;;;;;;;;;5010915;28;20217;-83
2021/09/14 19:06:56;;;;;;;8.33;5.70;;;;;;;;;;5022865;28;20185;-83
2021/09/14 19:10:03;;;;;;;8.97;6.37;;;;;;;;;;5009753;28;20189;-83
2021/09/14 19:13:09;;;;;;;9.20;5.97;;;;;;;;;;5009166;28;20182;-83
2021/09/14 19:16:16;;;;;;;6.97;5.87;;;;;;;;;;5006725;28;20186;-83
2021/09/14 19:19:21;;;;;;;7.90;5.70;;;;;;;;;;4994400;28;20193;-83
2021/09/14 19:22:26;;;;;;;10.37;6.40;;;;;;;;;;4986870;28;20198;-83
2021/09/14 19:25:30;;;;;;;8.93;6.23;;;;;;;;;;4986350;28;20182;-83